Charles City, IA (50616)

6:42 AM CST on February 09, 2016 (GMT -0600)
Charles City Municipal | | Change Station
CLOSE
Current Station
Airport
Location: Charles City,
Elevation: 1125 ft
Nearby Weather Stations

Elev 1125 ft 43.07 °N, 92.61 °W | Updated 27 minutes ago

Light Snow
Light Snow
9 °F
Feels Like -10 °F
N
17
Wind Variable Wind from NNW
Gusts 26 mph

Today
High -- | Low -- °F
--% Chance of Precip.
Yesterday
High -- | Low -- °F
Precip. -- in
Pressure 29.99 in
Visibility 8.0 miles
Clouds Mostly Cloudy 1100 ft
Mostly Cloudy 1600 ft
Overcast 2000 ft
Windchill -10 °F
Dew Point 5 °F
Humidity 85%
Rainfall 0.00 in
Snow Depth Not available.
7:16 AM 5:33 PM
New Moon, 1% visible
METAR KCCY 091215Z AUTO 33015G23KT 8SM -SN BKN011 BKN016 OVC020 M13/M15 A2999 RMK AO2
Pressure 29.99 in
Visibility 8.0 miles
Clouds Mostly Cloudy 1100 ft
Mostly Cloudy 1600 ft
Overcast 2000 ft
Windchill -10 °F
Dew Point 5 °F
Humidity 85%
Rainfall 0.00 in
Snow Depth Not available.
7:16 AM 5:33 PM
New Moon, 1% visible
METAR KCCY 091215Z AUTO 33015G23KT 8SM -SN BKN011 BKN016 OVC020 M13/M15 A2999 RMK AO2

10-Day Weather Forecast

Almanac

Astronomy

Feb. 09, 2016 Rise Set
Actual Time
Civil Twilight
Nautical Twilight
Astronomical Twilight
Moon
Length of Visible Light
Length of Day
Tomorrow will be .
, % of the Moon is Illuminated

Today's Extremes

State Highs State Lows

Community

WunderPhotos

Upload Photos

1,891,589 photos uploaded!

WunderBlog® & News

Nearby

Air Quality

  Air Quality AQ Index Pollutant
Not available.

Snow Depth

Station Depth Elevation

Earthquake Activity

City Distance Mag. Time & Date
Minimum magnitude displayed is 2.5.

Coastal Water Temperatures

Place Temperature

Stations

Nearby Weather Stations

Station Location Temp. Windchill Dew Point Humidity Wind Precip. Elev Updated Type
                   

Watches & Warnings

There are currently no watches in effect.